Impacts TAF Board
For situational awareness. Not to be used for flight planning purposes.
IDs:

KTEX - Telluride Rgnl, CO, US

Issued at 1121 UTC 07 Jul 2020
Updated at 1305 UTC 07 Jul 2020
Potential Impact None Slight Moderate High
Time<<08/02Z 08/03Z 08/04Z 08/05Z 08/06Z 08/07Z 08/08Z 08/09Z 08/10Z 08/11Z 08/12Z 08/13Z 08/14Z>>
Type PRVL PRVL PRVL PRVL PRVL PRVL PRVL PRVL PRVL PRVL
VIS >6 >6 >6 >6 >6 >6 >6 >6 >6 >6
CIG -- -- -- -- -- -- -- -- -- --
Cover SKC SKC SKC SKC SKC SKC SKC SKC SKC SKC
FltCat VFR VFR VFR VFR VFR VFR VFR VFR VFR VFR
WX -- -- -- -- -- -- -- -- -- --
WDir 190 190 190 190 190 190 190 190 190 190
WSpd 7 7 7 7 7 7 7 7 7 7
WGst -- -- -- -- -- -- -- -- -- --
Raw TAF
KTEX 071121Z 0712/0812 14007KT P6SM SCT200
  FM071700 18009KT P6SM FEW200
  FM071900 19013G21KT P6SM FEW100 FEW200
  FM072300 22015G26KT P6SM SKC
  FM080200 19007KT P6SM SKC


METAR Board
Radar Display
Forecast Discussion
For situational awareness. Not to be used for flight planning purposes.